createdAt,value
2019-02-04T00:02:23.233Z,4.60
2019-02-04T00:04:53.317Z,4.60
2019-02-04T00:07:23.913Z,4.60
2019-02-04T00:09:54.051Z,4.60
2019-02-04T00:12:24.283Z,4.60
2019-02-04T00:14:54.370Z,4.60
2019-02-04T00:17:24.458Z,4.60
2019-02-04T00:19:55.178Z,4.60
2019-02-04T00:22:25.294Z,4.50
2019-02-04T00:24:55.396Z,4.50
2019-02-04T00:27:25.611Z,4.60
2019-02-04T00:29:57.268Z,4.50
2019-02-04T00:32:28.200Z,4.50
2019-02-04T00:34:58.287Z,4.50
2019-02-04T00:37:28.383Z,4.50
2019-02-04T00:40:00.038Z,4.50
2019-02-04T00:42:30.652Z,4.50
2019-02-04T00:45:01.021Z,4.50
2019-02-04T00:47:31.084Z,4.50
2019-02-04T00:50:01.595Z,4.50
2019-02-04T00:52:32.759Z,4.40
2019-02-04T00:55:02.825Z,4.40
2019-02-04T00:57:33.123Z,4.40
2019-02-04T01:00:06.496Z,4.40
2019-02-04T01:02:42.954Z,4.40
2019-02-04T01:05:15.151Z,4.40
2019-02-04T01:07:45.246Z,4.40
2019-02-04T01:10:17.613Z,4.40
2019-02-04T01:12:47.696Z,4.30
2019-02-04T01:15:18.955Z,4.30
2019-02-04T01:17:48.883Z,4.30
2019-02-04T01:20:26.834Z,4.30
2019-02-04T01:22:57.449Z,4.30
2019-02-04T01:25:28.070Z,4.30
2019-02-04T01:27:58.017Z,4.30
2019-02-04T01:30:28.056Z,4.30
2019-02-04T01:32:58.011Z,4.30
2019-02-04T01:35:28.364Z,4.40
2019-02-04T01:37:58.368Z,4.40
2019-02-04T01:40:28.393Z,4.40
2019-02-04T01:42:58.378Z,4.40
2019-02-04T01:45:28.401Z,4.40
2019-02-04T01:47:58.441Z,4.40
2019-02-04T01:50:28.537Z,4.40
2019-02-04T01:52:58.558Z,4.40
2019-02-04T01:55:28.599Z,4.40
2019-02-04T01:57:58.644Z,4.50
2019-02-04T02:00:34.115Z,4.50
2019-02-04T02:03:04.083Z,4.50
2019-02-04T02:05:34.114Z,4.40
2019-02-04T02:08:04.156Z,4.40
2019-02-04T02:10:34.277Z,4.50
2019-02-04T02:13:04.412Z,4.50
2019-02-04T02:15:35.168Z,4.50
2019-02-04T02:18:05.337Z,4.50
2019-02-04T02:20:35.433Z,4.50
2019-02-04T02:23:05.443Z,4.50
2019-02-04T02:25:35.785Z,4.50
2019-02-04T02:28:07.270Z,4.40
2019-02-04T02:30:37.251Z,4.40
2019-02-04T02:33:07.347Z,4.40
2019-02-04T02:35:37.340Z,4.30
2019-02-04T02:38:07.443Z,4.30
2019-02-04T02:40:37.540Z,4.20
2019-02-04T02:43:07.906Z,4.10
2019-02-04T02:45:37.998Z,4.00
2019-02-04T02:48:08.125Z,3.90
2019-02-04T02:50:38.230Z,3.80
2019-02-04T02:53:08.297Z,3.80
2019-02-04T02:55:39.803Z,3.60
2019-02-04T02:58:09.867Z,3.50
2019-02-04T03:00:39.994Z,3.50
2019-02-04T03:03:10.180Z,3.40
2019-02-04T03:05:40.309Z,3.30
2019-02-04T03:08:10.317Z,3.20
2019-02-04T03:10:40.411Z,3.20
2019-02-04T03:13:10.486Z,3.10
2019-02-04T03:15:40.612Z,3.00
2019-02-04T03:18:10.847Z,3.00
2019-02-04T03:20:41.049Z,3.00
2019-02-04T03:23:11.120Z,2.90
2019-02-04T03:25:42.478Z,2.90
2019-02-04T03:28:16.956Z,2.90
2019-02-04T03:30:47.318Z,2.90
2019-02-04T03:33:17.408Z,2.80
2019-02-04T03:35:47.382Z,2.80
2019-02-04T03:38:17.460Z,2.80
2019-02-04T03:40:47.695Z,2.80
2019-02-04T03:43:18.111Z,2.70
2019-02-04T03:45:48.142Z,2.70
2019-02-04T03:48:18.709Z,2.70
2019-02-04T03:50:48.790Z,2.70
2019-02-04T03:53:18.833Z,2.80
2019-02-04T03:55:48.852Z,2.80
2019-02-04T03:58:18.947Z,2.80
2019-02-04T04:00:48.978Z,2.90
2019-02-04T04:03:18.896Z,2.90
2019-02-04T04:05:48.952Z,3.00
2019-02-04T04:08:18.974Z,3.10
2019-02-04T04:10:49.293Z,3.10
2019-02-04T04:13:19.430Z,3.10
2019-02-04T04:15:49.652Z,3.20
2019-02-04T04:18:19.773Z,3.20
2019-02-04T04:20:49.831Z,3.20
2019-02-04T04:23:19.884Z,3.20
2019-02-04T04:25:49.997Z,3.20
2019-02-04T04:28:20.381Z,3.20
2019-02-04T04:30:50.620Z,3.10
2019-02-04T04:33:20.689Z,3.10
2019-02-04T04:35:50.836Z,3.10
2019-02-04T04:38:20.866Z,3.10
2019-02-04T04:40:51.329Z,3.10
2019-02-04T04:43:21.382Z,3.10
2019-02-04T04:45:51.508Z,3.10
2019-02-04T04:48:26.733Z,3.10
2019-02-04T04:50:53.413Z,3.20
2019-02-04T04:53:23.620Z,3.20
2019-02-04T04:55:54.254Z,3.20
2019-02-04T04:58:24.541Z,3.20
2019-02-04T05:00:55.014Z,3.20
2019-02-04T05:03:25.265Z,3.10
2019-02-04T05:05:55.413Z,3.10
2019-02-04T05:08:25.956Z,3.10
2019-02-04T05:10:56.219Z,3.00
2019-02-04T05:13:26.438Z,3.00
2019-02-04T05:15:56.539Z,2.90
2019-02-04T05:18:37.527Z,2.90
2019-02-04T05:20:58.371Z,2.80
2019-02-04T05:23:28.419Z,2.80
2019-02-04T05:26:17.105Z,2.80
2019-02-04T05:28:51.284Z,2.80
2019-02-04T05:31:22.565Z,2.80
2019-02-04T05:33:52.992Z,2.80
2019-02-04T05:36:23.786Z,2.70
2019-02-04T05:38:53.810Z,2.70
2019-02-04T05:41:24.133Z,2.70
2019-02-04T05:43:54.787Z,2.60
2019-02-04T05:46:27.320Z,2.60
2019-02-04T05:48:57.791Z,2.50
2019-02-04T05:51:30.969Z,2.50
2019-02-04T05:54:01.139Z,2.40
2019-02-04T05:56:32.176Z,2.40
2019-02-04T05:59:02.451Z,2.40
2019-02-04T06:01:32.837Z,2.30
2019-02-04T06:04:02.872Z,2.30
2019-02-04T06:06:32.923Z,2.20
2019-02-04T06:09:02.912Z,2.20
2019-02-04T06:11:33.208Z,2.20
2019-02-04T06:14:03.605Z,2.10
2019-02-04T06:16:34.373Z,2.10
2019-02-04T06:19:06.532Z,2.00
2019-02-04T06:21:39.438Z,1.90
2019-02-04T06:24:09.583Z,1.90
2019-02-04T06:26:39.647Z,1.90
2019-02-04T06:29:09.748Z,1.80
2019-02-04T06:31:39.783Z,1.80
2019-02-04T06:34:13.546Z,1.80
2019-02-04T06:36:43.856Z,1.80
2019-02-04T06:39:24.585Z,1.70
2019-02-04T06:41:58.061Z,1.70
2019-02-04T06:44:29.041Z,1.70
2019-02-04T06:46:59.488Z,1.70
2019-02-04T06:49:57.600Z,1.70
2019-02-04T06:52:41.342Z,1.70
2019-02-04T06:55:39.172Z,1.70
2019-02-04T06:58:09.738Z,1.70
2019-02-04T07:00:40.497Z,1.60
2019-02-04T07:03:10.513Z,1.60
2019-02-04T07:05:43.928Z,1.50
2019-02-04T07:08:13.522Z,1.50
2019-02-04T07:10:43.781Z,1.50
2019-02-04T07:13:13.923Z,1.50
2019-02-04T07:15:44.269Z,1.40
2019-02-04T07:18:15.025Z,1.40
2019-02-04T07:20:45.111Z,1.40
2019-02-04T07:23:18.094Z,1.40
2019-02-04T07:25:48.754Z,1.50
2019-02-04T07:28:19.739Z,1.50
2019-02-04T07:30:53.153Z,1.50
2019-02-04T07:33:23.207Z,1.50
2019-02-04T07:36:03.253Z,1.50
2019-02-04T07:38:29.540Z,1.50
2019-02-04T07:41:14.609Z,1.50
2019-02-04T07:43:45.190Z,1.50
2019-02-04T07:46:18.277Z,1.50
2019-02-04T07:48:49.773Z,1.50
2019-02-04T07:51:30.258Z,1.60
2019-02-04T07:54:22.069Z,1.60
2019-02-04T07:56:59.929Z,1.70
2019-02-04T07:59:31.682Z,1.70
2019-02-04T08:02:07.127Z,1.70
2019-02-04T08:04:37.356Z,1.70
2019-02-04T08:07:07.481Z,1.70
2019-02-04T08:09:37.860Z,1.70
2019-02-04T08:12:08.898Z,1.80
2019-02-04T08:14:39.199Z,1.80
2019-02-04T08:17:10.303Z,1.80
2019-02-04T08:19:47.032Z,1.80
2019-02-04T08:22:13.453Z,1.90
2019-02-04T08:24:43.621Z,1.90
2019-02-04T08:27:17.017Z,1.90
2019-02-04T08:29:47.383Z,2.00
2019-02-04T08:32:17.939Z,2.00
2019-02-04T08:34:48.628Z,2.10
2019-02-04T08:37:19.104Z,2.10
2019-02-04T08:39:49.418Z,2.20
2019-02-04T08:42:19.546Z,2.30
2019-02-04T08:44:49.987Z,2.30
2019-02-04T08:47:22.610Z,2.40
2019-02-04T08:49:58.405Z,2.50
2019-02-04T08:52:25.258Z,2.50
2019-02-04T08:54:55.324Z,2.60
2019-02-04T08:57:25.836Z,2.60
2019-02-04T08:59:57.472Z,2.70
2019-02-04T09:02:28.950Z,2.70
2019-02-04T09:05:02.941Z,2.80
2019-02-04T09:07:36.535Z,2.90
2019-02-04T09:10:15.060Z,3.00
2019-02-04T09:12:45.226Z,3.10
2019-02-04T09:15:16.432Z,3.30
2019-02-04T09:17:47.618Z,3.40
2019-02-04T09:20:17.500Z,3.60
2019-02-04T09:22:51.789Z,3.90
2019-02-04T09:25:24.634Z,4.00
2019-02-04T09:27:59.065Z,4.30
2019-02-04T09:30:29.286Z,4.50
2019-02-04T09:32:59.660Z,4.70
2019-02-04T09:35:30.116Z,4.90
2019-02-04T09:38:00.850Z,5.00
2019-02-04T09:40:40.832Z,5.10
2019-02-04T09:43:11.465Z,5.20
2019-02-04T09:45:43.324Z,5.30
2019-02-04T09:48:19.059Z,5.40
2019-02-04T09:50:52.114Z,5.50
2019-02-04T09:53:22.109Z,5.60
2019-02-04T09:55:52.179Z,5.70
2019-02-04T09:58:23.191Z,5.80
2019-02-04T10:00:53.283Z,6.00
2019-02-04T10:03:23.331Z,6.20
2019-02-04T10:05:53.520Z,6.40
2019-02-04T10:08:23.635Z,6.50
2019-02-04T10:10:53.687Z,6.60
2019-02-04T10:13:23.775Z,6.60
2019-02-04T10:15:53.962Z,6.60
2019-02-04T10:18:24.461Z,6.70
2019-02-04T10:20:54.690Z,6.70
2019-02-04T10:23:31.421Z,6.90
2019-02-04T10:26:01.578Z,7.10
2019-02-04T10:28:31.701Z,7.20
2019-02-04T10:31:05.173Z,7.30
2019-02-04T10:33:35.292Z,7.40
2019-02-04T10:36:05.299Z,7.50
2019-02-04T10:38:35.756Z,7.60
2019-02-04T10:41:05.700Z,7.80
2019-02-04T10:43:36.254Z,7.80
2019-02-04T10:46:07.517Z,7.80
2019-02-04T10:48:38.191Z,7.60
2019-02-04T10:51:09.546Z,7.50
2019-02-04T10:53:39.717Z,7.30
2019-02-04T10:56:10.035Z,7.10
2019-02-04T10:58:40.481Z,7.00
2019-02-04T11:01:47.152Z,6.90
2019-02-04T11:04:19.960Z,6.90
2019-02-04T11:06:57.953Z,7.10
2019-02-04T11:09:28.009Z,7.30
2019-02-04T11:11:58.138Z,7.40
2019-02-04T11:14:28.182Z,7.60
2019-02-04T11:16:58.455Z,7.80
2019-02-04T11:19:28.508Z,8.00
2019-02-04T11:21:58.819Z,8.30
2019-02-04T11:24:29.010Z,8.50
2019-02-04T11:26:59.226Z,8.80
2019-02-04T11:29:29.660Z,9.10
2019-02-04T11:32:00.140Z,9.30
2019-02-04T11:34:30.656Z,9.50
2019-02-04T11:37:01.402Z,9.70
2019-02-04T11:39:31.739Z,9.80
2019-02-04T11:42:02.239Z,10.00
2019-02-04T11:44:32.572Z,10.20
2019-02-04T11:47:02.851Z,10.40
2019-02-04T11:49:32.960Z,10.50
2019-02-04T11:52:03.562Z,10.70
2019-02-04T11:54:34.652Z,10.70
2019-02-04T11:57:04.931Z,10.80
2019-02-04T11:59:34.982Z,10.90
2019-02-04T12:02:05.256Z,10.80
2019-02-04T12:04:35.507Z,10.80
2019-02-04T12:07:05.596Z,10.80
2019-02-04T12:09:35.979Z,10.90
2019-02-04T12:12:06.121Z,11.00
2019-02-04T12:14:36.387Z,11.20
2019-02-04T12:17:06.627Z,11.50
2019-02-04T12:19:36.718Z,11.60
2019-02-04T12:22:06.814Z,11.70
2019-02-04T12:24:36.989Z,11.80
2019-02-04T12:27:07.299Z,11.90
2019-02-04T12:29:37.393Z,11.90
2019-02-04T12:32:07.473Z,11.90
2019-02-04T12:34:37.564Z,12.00
2019-02-04T12:37:08.089Z,12.10
2019-02-04T12:39:38.102Z,12.20
2019-02-04T12:42:08.543Z,12.20
2019-02-04T12:44:38.573Z,12.30
2019-02-04T12:47:09.585Z,12.40
2019-02-04T12:49:39.705Z,12.50
2019-02-04T12:52:10.553Z,12.60
2019-02-04T12:54:41.742Z,12.70
2019-02-04T12:57:11.731Z,12.80
2019-02-04T12:59:45.060Z,13.00
2019-02-04T13:02:13.444Z,13.00
2019-02-04T13:04:44.234Z,13.10
2019-02-04T13:07:15.469Z,13.10
2019-02-04T13:09:45.666Z,13.10
2019-02-04T13:12:16.147Z,13.10
2019-02-04T13:14:46.209Z,13.00
2019-02-04T13:17:17.872Z,12.90
2019-02-04T13:19:51.162Z,12.70
2019-02-04T13:22:21.436Z,12.50
2019-02-04T13:24:52.021Z,12.30
2019-02-04T13:27:23.531Z,12.10
2019-02-04T13:29:54.123Z,11.80
2019-02-04T13:32:24.395Z,11.60
2019-02-04T13:34:55.459Z,11.50
2019-02-04T13:37:25.980Z,11.40
2019-02-04T13:39:56.228Z,11.40
2019-02-04T13:42:26.351Z,11.30
2019-02-04T13:44:56.781Z,11.20
2019-02-04T13:47:26.878Z,11.10
2019-02-04T13:52:46.360Z,10.80
2019-02-04T13:55:19.270Z,10.70
2019-02-04T13:57:49.635Z,10.70
2019-02-04T14:00:20.032Z,10.70
2019-02-04T14:02:58.789Z,10.60
2019-02-04T14:05:22.183Z,10.50
2019-02-04T14:07:52.506Z,10.50
2019-02-04T14:10:30.087Z,10.40
2019-02-04T14:13:00.457Z,10.30
2019-02-04T14:15:30.617Z,10.20
2019-02-04T14:18:01.078Z,10.10
2019-02-04T14:20:31.219Z,10.10
2019-02-04T14:23:01.398Z,10.10
2019-02-04T14:25:31.460Z,10.10
2019-02-04T14:28:03.627Z,10.10
2019-02-04T14:30:34.866Z,10.00
2019-02-04T14:33:06.478Z,10.00
2019-02-04T14:35:36.856Z,9.90
2019-02-04T14:38:08.793Z,9.80
2019-02-04T14:40:38.989Z,9.70
2019-02-04T14:43:38.161Z,9.60
2019-02-04T14:46:30.086Z,9.50
2019-02-04T14:49:27.653Z,9.50
2019-02-04T14:52:57.761Z,9.40
2019-02-04T14:56:01.038Z,9.40
2019-02-04T14:59:07.805Z,9.40
2019-02-04T15:02:14.658Z,9.40
2019-02-04T15:05:22.427Z,9.30
2019-02-04T15:08:52.236Z,9.30
2019-02-04T15:11:44.308Z,9.20
2019-02-04T15:15:13.118Z,9.10
2019-02-04T15:18:15.633Z,9.00
2019-02-04T15:21:15.137Z,8.90
2019-02-04T15:24:20.693Z,8.80
2019-02-04T15:27:32.099Z,8.70
2019-02-04T15:30:40.955Z,8.60
2019-02-04T15:33:48.038Z,8.50
2019-02-04T15:36:27.362Z,8.40
2019-02-04T15:39:28.462Z,8.30
2019-02-04T15:42:41.069Z,8.20
2019-02-04T15:45:45.175Z,8.10
2019-02-04T15:48:19.527Z,8.00
2019-02-04T15:51:17.688Z,8.00
2019-02-04T15:53:47.764Z,7.90
2019-02-04T15:56:17.615Z,7.80
2019-02-04T15:58:47.612Z,7.80
2019-02-04T16:01:17.563Z,7.80
2019-02-04T16:03:48.737Z,7.70
2019-02-04T16:06:18.785Z,7.70
2019-02-04T16:08:49.347Z,7.60
2019-02-04T16:11:19.964Z,7.60
2019-02-04T16:13:50.305Z,7.60
2019-02-04T16:16:54.898Z,7.50
2019-02-04T16:19:29.595Z,7.50
2019-02-04T16:21:59.463Z,7.40
2019-02-04T16:24:34.079Z,7.30
2019-02-04T16:27:04.208Z,7.30
2019-02-04T16:29:34.267Z,7.20
2019-02-04T16:32:05.297Z,7.10
2019-02-04T16:34:35.488Z,7.00
2019-02-04T16:37:05.566Z,6.90
2019-02-04T16:39:36.205Z,6.90
2019-02-04T16:42:12.633Z,6.80
2019-02-04T16:44:43.347Z,6.70
2019-02-04T16:47:13.581Z,6.60
2019-02-04T16:49:43.856Z,6.60
2019-02-04T16:52:15.161Z,6.50
2019-02-04T16:54:46.508Z,6.40
2019-02-04T16:57:32.189Z,6.30
2019-02-04T17:00:00.346Z,6.30
2019-02-04T17:02:30.972Z,6.20
2019-02-04T17:06:01.259Z,6.10
2019-02-04T17:08:38.957Z,6.10
2019-02-04T17:11:09.074Z,6.00
2019-02-04T17:13:44.623Z,5.90
2019-02-04T17:16:14.765Z,5.80
2019-02-04T17:18:46.441Z,5.80
2019-02-04T17:21:19.811Z,5.70
2019-02-04T17:23:54.934Z,5.70
2019-02-04T17:26:24.991Z,5.60
2019-02-04T17:28:55.574Z,5.60
2019-02-04T17:31:25.615Z,5.50
2019-02-04T17:33:55.688Z,5.50
2019-02-04T17:36:26.031Z,5.40
2019-02-04T17:39:04.308Z,5.40
2019-02-04T17:41:36.107Z,5.30
2019-02-04T17:44:06.750Z,5.30
2019-02-04T17:46:36.892Z,5.20
2019-02-04T17:49:06.815Z,5.10
2019-02-04T17:51:37.029Z,5.10
2019-02-04T17:54:07.110Z,5.10
2019-02-04T17:56:37.267Z,5.00
2019-02-04T17:59:07.166Z,5.00
2019-02-04T18:01:37.310Z,4.90
2019-02-04T18:04:07.402Z,4.90
2019-02-04T18:06:37.509Z,4.90
2019-02-04T18:09:09.320Z,4.90
2019-02-04T18:11:40.015Z,4.80
2019-02-04T18:14:10.091Z,4.80
2019-02-04T18:16:40.310Z,4.80
2019-02-04T18:19:10.308Z,4.80
2019-02-04T18:21:40.383Z,4.70
2019-02-04T18:24:10.539Z,4.70
2019-02-04T18:26:40.619Z,4.70
2019-02-04T18:29:10.815Z,4.70
2019-02-04T18:31:40.944Z,4.70
2019-02-04T18:34:11.007Z,4.70
2019-02-04T18:36:41.130Z,4.60
2019-02-04T18:39:11.615Z,4.60
2019-02-04T18:41:41.650Z,4.60
2019-02-04T18:44:11.733Z,4.50
2019-02-04T18:46:42.448Z,4.50
2019-02-04T18:49:12.489Z,4.40
2019-02-04T18:51:42.550Z,4.40
2019-02-04T18:54:12.618Z,4.40
2019-02-04T18:56:42.794Z,4.30
2019-02-04T18:59:12.916Z,4.30
2019-02-04T19:01:43.003Z,4.20
2019-02-04T19:04:15.675Z,4.20
2019-02-04T19:06:47.708Z,4.20
2019-02-04T19:09:16.784Z,4.10
2019-02-04T19:11:46.730Z,4.10
2019-02-04T19:14:17.320Z,4.10
2019-02-04T19:16:47.177Z,4.20
2019-02-04T19:19:18.030Z,4.10
2019-02-04T19:21:48.169Z,4.10
2019-02-04T19:24:18.448Z,4.10
2019-02-04T19:26:48.586Z,4.10
2019-02-04T19:29:18.616Z,4.10
2019-02-04T19:31:49.177Z,4.00
2019-02-04T19:34:19.350Z,4.00
2019-02-04T19:36:49.406Z,4.00
2019-02-04T19:39:19.473Z,3.90
2019-02-04T19:41:49.655Z,3.90
2019-02-04T19:44:19.719Z,3.90
2019-02-04T19:46:50.522Z,3.90
2019-02-04T19:49:20.817Z,3.90
2019-02-04T19:51:50.945Z,3.90
2019-02-04T19:54:21.816Z,3.90
2019-02-04T19:56:51.843Z,3.90
2019-02-04T19:59:22.029Z,3.90
2019-02-04T20:01:52.429Z,3.90
2019-02-04T20:04:22.569Z,3.80
2019-02-04T20:06:52.500Z,3.80
2019-02-04T20:09:22.719Z,3.80
2019-02-04T20:11:52.673Z,3.80
2019-02-04T20:14:22.749Z,3.80
2019-02-04T20:16:52.675Z,3.80
2019-02-04T20:19:22.770Z,3.80
2019-02-04T20:21:53.287Z,3.80
2019-02-04T20:24:32.878Z,3.80
2019-02-04T20:26:55.205Z,3.80
2019-02-04T20:29:25.402Z,3.70
2019-02-04T20:31:55.390Z,3.70
2019-02-04T20:34:25.384Z,3.70
2019-02-04T20:36:55.989Z,3.70
2019-02-04T20:39:25.941Z,3.70
2019-02-04T20:41:56.473Z,3.60
2019-02-04T20:44:26.505Z,3.60
2019-02-04T20:46:57.642Z,3.50
2019-02-04T20:49:27.668Z,3.50
2019-02-04T20:51:57.608Z,3.50
2019-02-04T20:54:28.155Z,3.40
2019-02-04T20:56:59.459Z,3.40
2019-02-04T20:59:29.554Z,3.40
2019-02-04T21:01:59.622Z,3.40
2019-02-04T21:04:29.691Z,3.30
2019-02-04T21:06:59.757Z,3.30
2019-02-04T21:09:30.260Z,3.30
2019-02-04T21:12:00.581Z,3.30
2019-02-04T21:14:33.000Z,3.20
2019-02-04T21:17:03.227Z,3.20
2019-02-04T21:19:33.323Z,3.20
2019-02-04T21:22:03.359Z,3.20
2019-02-04T21:24:33.437Z,3.10
2019-02-04T21:27:03.447Z,3.10
2019-02-04T21:29:33.779Z,3.10
2019-02-04T21:32:04.019Z,3.00
2019-02-04T21:34:34.051Z,3.00
2019-02-04T21:37:05.548Z,2.90
2019-02-04T21:39:35.587Z,2.90
2019-02-04T21:42:06.848Z,2.90
2019-02-04T21:44:37.881Z,2.90
2019-02-04T21:47:07.789Z,2.90
2019-02-04T21:49:37.942Z,2.90
2019-02-04T21:52:10.332Z,2.90
2019-02-04T21:54:40.446Z,3.00
2019-02-04T21:57:10.491Z,3.00
2019-02-04T21:59:43.287Z,3.00
2019-02-04T22:02:13.419Z,3.00
2019-02-04T22:04:43.484Z,3.00
2019-02-04T22:07:15.231Z,3.10
2019-02-04T22:09:45.378Z,3.10
2019-02-04T22:12:15.307Z,3.10
2019-02-04T22:14:45.236Z,3.10
2019-02-04T22:17:18.640Z,3.00
2019-02-04T22:19:50.519Z,3.00
2019-02-04T22:22:20.406Z,3.00
2019-02-04T22:24:50.263Z,3.00
2019-02-04T22:27:20.534Z,3.00
2019-02-04T22:29:52.558Z,2.90
2019-02-04T22:32:24.672Z,2.90
2019-02-04T22:34:54.839Z,2.90
2019-02-04T22:37:24.881Z,2.90
2019-02-04T22:39:56.140Z,2.80
2019-02-04T22:42:26.268Z,2.80
2019-02-04T22:44:57.767Z,2.80
2019-02-04T22:47:27.828Z,2.80
2019-02-04T22:49:57.920Z,2.80
2019-02-04T22:52:27.975Z,2.80
2019-02-04T22:55:00.326Z,2.80
2019-02-04T22:57:33.882Z,2.80
2019-02-04T23:00:04.711Z,2.80
2019-02-04T23:02:35.691Z,2.80
2019-02-04T23:05:05.999Z,2.80
2019-02-04T23:07:37.178Z,2.80
2019-02-04T23:10:09.104Z,2.70
2019-02-04T23:12:39.179Z,2.70
2019-02-04T23:15:09.909Z,2.70
2019-02-04T23:17:39.899Z,2.70
2019-02-04T23:20:11.021Z,2.70
2019-02-04T23:22:44.028Z,2.70
2019-02-04T23:25:12.967Z,2.70
2019-02-04T23:27:44.190Z,2.70
2019-02-04T23:30:14.312Z,2.70
2019-02-04T23:32:44.803Z,2.70
2019-02-04T23:35:14.853Z,2.70
2019-02-04T23:37:44.860Z,2.70
2019-02-04T23:40:16.765Z,2.60
2019-02-04T23:42:48.351Z,2.60
2019-02-04T23:45:20.122Z,2.50
2019-02-04T23:47:53.145Z,2.50
2019-02-04T23:50:25.369Z,2.40
2019-02-04T23:52:55.387Z,2.40
2019-02-04T23:55:27.801Z,2.40
2019-02-04T23:57:59.464Z,2.40
